Time;durP1;ratioP1;P1;durP2;ratioP2;P2;SDS_P1;SDS_P2;PMS_P1;PMS_P2;Temp;Humidity;BMP_temperature;BMP_pressure;BME280_temperature;BME280_humidity;BME280_pressure;Samples;Min_cycle;Max_cycle;Signal;HPM_P1;HPM_P2
2022/01/13 00:00:25;;;;;;;;;;;;;;;;;;1037851;28;1305;-28
2022/01/13 00:00:55;;;;;;;;;;;;;;;;;;1038877;28;1158;-32
2022/01/13 00:01:30;;;;;;;;;;;;;;;;;;1039313;28;1209;-30
2022/01/13 00:02:04;;;;;;;;;;;;;;;;;;1038878;28;1099;-28
2022/01/13 00:02:36;;;;;;;;;;;;;;;;;;1035911;28;1225;-29
2022/01/13 00:03:06;;;;;;;;;;;;;;;;;;1037861;28;1166;-31
2022/01/13 00:03:37;;;;;;;;;;;;;;;;;;1038521;28;1123;-30
2022/01/13 00:04:10;;;;;;;;;;;;;;;;;;1039231;28;1206;-29
2022/01/13 00:04:40;;;;;;;;;;;;;;;;;;1039093;28;1150;-27
2022/01/13 00:05:11;;;;;;;;;;;;;;;;;;1037961;28;1173;-28
2022/01/13 00:05:41;;;;;;;;;;;;;;;;;;1038085;28;1119;-28
2022/01/13 00:06:11;;;;;;;;;;;;;;;;;;1036331;28;1164;-25
2022/01/13 00:06:42;;;;;;;;;;;;;;;;;;1038314;28;1193;-28
2022/01/13 00:07:13;;;;;;;;;;;;;;;;;;1036626;28;957;-25
2022/01/13 00:07:43;;;;;;;;;;;;;;;;;;1035348;28;1464;-28
2022/01/13 00:08:13;;;;;;;;;;;;;;;;;;1038803;28;1182;-26
2022/01/13 00:08:44;;;;;;;;;;;;;;;;;;1038134;28;1078;-26
2022/01/13 00:09:15;;;;;;;;;;;;;;;;;;1039183;28;1154;-28
2022/01/13 00:09:45;;;;;;;;;;;;;;;;;;1037424;28;1138;-33
2022/01/13 00:10:15;;;;;;;;;;;;;;;;;;1039003;28;1898;-27
2022/01/13 00:10:46;;;;;;;;;;;;;;;;;;1039442;28;1154;-27
2022/01/13 00:11:16;;;;;;;;;;;;;;;;;;1037946;28;1039;-28
2022/01/13 00:11:48;;;;;;;;;;;;;;;;;;1038011;28;1139;-25
2022/01/13 00:12:20;;;;;;;;;;;;;;;;;;1038782;28;1091;-28
2022/01/13 00:12:58;;;;;;;;;;;;;;;;;;1039356;28;1130;-28
2022/01/13 00:13:35;;;;;;;;;;;;;;;;;;1039239;28;1103;-31
2022/01/13 00:15:10;;;;;;;;;;;;;;;;;;1037862;28;1055;-30
2022/01/13 00:18:39;;;;;;;;;;;;;;;;;;1012425;29;1053;-26
2022/01/13 00:21:59;;;;;;;;;;;;;;;;;;1037822;28;1169;-31
2022/01/13 00:23:55;;;;;;;;;;;;;;;;;;1034818;28;1153;-26
2022/01/13 00:24:25;;;;;;;;;;;;;;;;;;1034971;28;1127;-29
2022/01/13 00:24:59;;;;;;;;;;;;;;;;;;1033493;28;1123;-28
2022/01/13 00:25:33;;;;;;;;;;;;;;;;;;1033292;28;1266;-30
2022/01/13 00:26:08;;;;;;;;;;;;;;;;;;1033845;28;1210;-28
2022/01/13 00:26:40;;;;;;;;;;;;;;;;;;1032082;28;1060;-25
2022/01/13 00:27:13;;;;;;;;;;;;;;;;;;1031786;28;1169;-27
2022/01/13 00:27:45;;;;;;;;;;;;;;;;;;1031957;28;1360;-28
2022/01/13 00:28:16;;;;;;;;;;;;;;;;;;1029283;28;1202;-28
2022/01/13 00:28:49;;;;;;;;;;;;;;;;;;1030673;28;1183;-26
2022/01/13 00:29:25;;;;;;;;;;;;;;;;;;1029331;28;1155;-27
2022/01/13 00:29:59;;;;;;;;;;;;;;;;;;1030811;28;1186;-30
2022/01/13 00:30:29;;;;;;;;;;;;;;;;;;1034428;28;1922;-31
2022/01/13 00:31:04;;;;;;;;;;;;;;;;;;1035043;28;1179;-26
2022/01/13 00:31:38;;;;;;;;;;;;;;;;;;1035108;28;1150;-30
2022/01/13 00:32:10;;;;;;;;;;;;;;;;;;1034326;28;1100;-27
2022/01/13 00:32:40;;;;;;;;;;;;;;;;;;1033838;28;1079;-29
2022/01/13 00:33:11;;;;;;;;;;;;;;;;;;1034439;28;1032;-27
2022/01/13 00:33:45;;;;;;;;;;;;;;;;;;1035005;28;1249;-25
2022/01/13 00:34:15;;;;;;;;;;;;;;;;;;1035191;28;1206;-27
2022/01/13 00:34:46;;;;;;;;;;;;;;;;;;1034150;28;1147;-31
2022/01/13 00:35:17;;;;;;;;;;;;;;;;;;1033657;28;1190;-26
2022/01/13 00:35:47;;;;;;;;;;;;;;;;;;1034887;28;1122;-27
2022/01/13 00:36:17;;;;;;;;;;;;;;;;;;1035076;28;1194;-29
2022/01/13 00:36:48;;;;;;;;;;;;;;;;;;1034430;28;1198;-28
2022/01/13 00:37:18;;;;;;;;;;;;;;;;;;1033729;28;1258;-30
2022/01/13 00:37:51;;;;;;;;;;;;;;;;;;1034618;28;1626;-26
2022/01/13 00:38:22;;;;;;;;;;;;;;;;;;1035150;28;1144;-28
2022/01/13 00:38:52;;;;;;;;;;;;;;;;;;1034972;28;1258;-30
2022/01/13 00:39:23;;;;;;;;;;;;;;;;;;1033744;28;1158;-32
2022/01/13 00:39:53;;;;;;;;;;;;;;;;;;1033938;28;1123;-28
2022/01/13 00:40:23;;;;;;;;;;;;;;;;;;1035054;28;1112;-27
2022/01/13 00:40:54;;;;;;;;;;;;;;;;;;1035190;28;1131;-30
2022/01/13 00:41:29;;;;;;;;;;;;;;;;;;1033791;28;1146;-26
2022/01/13 00:41:59;;;;;;;;;;;;;;;;;;1033783;28;1103;-28
2022/01/13 00:42:29;;;;;;;;;;;;;;;;;;1034578;28;1197;-29
2022/01/13 00:43:00;;;;;;;;;;;;;;;;;;1035070;28;1246;-28
2022/01/13 00:43:31;;;;;;;;;;;;;;;;;;1034682;28;1107;-27
2022/01/13 00:44:02;;;;;;;;;;;;;;;;;;1032498;28;1138;-26
2022/01/13 00:44:38;;;;;;;;;;;;;;;;;;1033232;28;1115;-27
2022/01/13 00:45:13;;;;;;;;;;;;;;;;;;1033762;28;1162;-27
2022/01/13 00:45:44;;;;;;;;;;;;;;;;;;1033279;28;1198;-27
2022/01/13 00:46:21;;;;;;;;;;;;;;;;;;1033163;28;1150;-25
2022/01/13 00:46:57;;;;;;;;;;;;;;;;;;1032418;28;1092;-26
2022/01/13 00:47:29;;;;;;;;;;;;;;;;;;1033700;28;1111;-28
2022/01/13 00:48:00;;;;;;;;;;;;;;;;;;1033116;28;1123;-27
2022/01/13 00:48:30;;;;;;;;;;;;;;;;;;1033675;28;1190;-28
2022/01/13 00:49:00;;;;;;;;;;;;;;;;;;1032737;28;1233;-30
2022/01/13 00:49:31;;;;;;;;;;;;;;;;;;1033557;28;1135;-31
2022/01/13 00:50:01;;;;;;;;;;;;;;;;;;1034583;28;1163;-27
2022/01/13 00:50:31;;;;;;;;;;;;;;;;;;1033909;28;1977;-31
2022/01/13 00:51:02;;;;;;;;;;;;;;;;;;1033210;28;1107;-28
2022/01/13 00:51:33;;;;;;;;;;;;;;;;;;1033410;28;1193;-28
2022/01/13 00:52:04;;;;;;;;;;;;;;;;;;1034455;28;1115;-27
2022/01/13 00:52:34;;;;;;;;;;;;;;;;;;1034391;28;1135;-27
2022/01/13 00:53:05;;;;;;;;;;;;;;;;;;1033487;28;1159;-30
2022/01/13 00:53:35;;;;;;;;;;;;;;;;;;1032853;28;1184;-30
2022/01/13 00:54:07;;;;;;;;;;;;;;;;;;1034497;28;1649;-25
2022/01/13 00:54:38;;;;;;;;;;;;;;;;;;1034278;28;1266;-28
2022/01/13 00:55:14;;;;;;;;;;;;;;;;;;1033833;28;1151;-28
2022/01/13 00:55:57;;;;;;;;;;;;;;;;;;1030809;28;1084;-26
2022/01/13 00:56:28;;;;;;;;;;;;;;;;;;1031355;28;1100;-30
2022/01/13 00:56:58;;;;;;;;;;;;;;;;;;1033127;28;1217;-30
2022/01/13 00:57:31;;;;;;;;;;;;;;;;;;1033875;28;1150;-26
2022/01/13 00:58:01;;;;;;;;;;;;;;;;;;1034583;28;1252;-30
2022/01/13 00:58:33;;;;;;;;;;;;;;;;;;1033916;28;1111;-29
2022/01/13 00:59:07;;;;;;;;;;;;;;;;;;1033298;28;1197;-25
2022/01/13 00:59:37;;;;;;;;;;;;;;;;;;1033061;28;1103;-28
2022/01/13 01:00:08;;;;;;;;;;;;;;;;;;1034110;28;1083;-30
2022/01/13 01:00:40;;;;;;;;;;;;;;;;;;1034325;28;1119;-28
2022/01/13 01:01:10;;;;;;;;;;;;;;;;;;1034064;28;1150;-26
2022/01/13 01:01:42;;;;;;;;;;;;;;;;;;1032948;28;1214;-25
2022/01/13 01:02:12;;;;;;;;;;;;;;;;;;1033479;28;1095;-28
2022/01/13 01:02:43;;;;;;;;;;;;;;;;;;1034386;28;1052;-28
2022/01/13 01:03:13;;;;;;;;;;;;;;;;;;1034317;28;1186;-30
2022/01/13 01:03:44;;;;;;;;;;;;;;;;;;1033245;28;1178;-29
2022/01/13 01:04:14;;;;;;;;;;;;;;;;;;1033233;28;1059;-25
2022/01/13 01:04:45;;;;;;;;;;;;;;;;;;1030651;28;1226;-28
2022/01/13 01:05:15;;;;;;;;;;;;;;;;;;1032914;28;1099;-24
2022/01/13 01:05:45;;;;;;;;;;;;;;;;;;1034576;28;1221;-25
2022/01/13 01:06:16;;;;;;;;;;;;;;;;;;1034530;28;1155;-29
2022/01/13 01:06:46;;;;;;;;;;;;;;;;;;1033373;28;1344;-29
2022/01/13 01:07:17;;;;;;;;;;;;;;;;;;1032928;28;1082;-31
2022/01/13 01:07:47;;;;;;;;;;;;;;;;;;1034165;28;1210;-29
2022/01/13 01:08:17;;;;;;;;;;;;;;;;;;1034375;28;1762;-29
2022/01/13 01:08:48;;;;;;;;;;;;;;;;;;1033009;28;1088;-30
2022/01/13 01:09:39;;;;;;;;;;;;;;;;;;1033132;28;1099;-32
2022/01/13 01:10:10;;;;;;;;;;;;;;;;;;1030572;28;1130;-29
2022/01/13 01:10:41;;;;;;;;;;;;;;;;;;1032852;28;1910;-27
2022/01/13 01:11:11;;;;;;;;;;;;;;;;;;1034410;28;1106;-29
2022/01/13 01:11:43;;;;;;;;;;;;;;;;;;1034346;28;1159;-27
2022/01/13 01:12:14;;;;;;;;;;;;;;;;;;1032518;28;1047;-26
2022/01/13 01:12:45;;;;;;;;;;;;;;;;;;1033162;28;1111;-29
2022/01/13 01:13:19;;;;;;;;;;;;;;;;;;1033665;28;1146;-28
2022/01/13 01:13:50;;;;;;;;;;;;;;;;;;1034122;28;1123;-28
2022/01/13 01:14:22;;;;;;;;;;;;;;;;;;1033920;28;1238;-28
2022/01/13 01:14:56;;;;;;;;;;;;;;;;;;1033080;28;1107;-31
2022/01/13 01:15:29;;;;;;;;;;;;;;;;;;1032775;28;1147;-27
2022/01/13 01:16:03;;;;;;;;;;;;;;;;;;1032726;28;1004;-31
2022/01/13 01:16:35;;;;;;;;;;;;;;;;;;1033953;28;1189;-31
2022/01/13 01:17:06;;;;;;;;;;;;;;;;;;1034352;28;1214;-26
2022/01/13 01:17:43;;;;;;;;;;;;;;;;;;1033794;28;1194;-30
2022/01/13 01:19:07;;;;;;;;;;;;;;;;;;1025686;28;1222;-28
2022/01/13 01:19:40;;;;;;;;;;;;;;;;;;1025230;28;1287;-27
2022/01/13 01:20:11;;;;;;;;;;;;;;;;;;1028313;28;1221;-27
2022/01/13 01:20:50;;;;;;;;;;;;;;;;;;1028668;28;1194;-31
2022/01/13 01:23:24;;;;;;;;;;;;;;;;;;1027800;28;997;-28
2022/01/13 01:24:56;;;;;;;;;;;;;;;;;;1029195;28;895;-26
2022/01/13 01:26:24;;;;;;;;;;;;;;;;;;1029896;28;819;-27
2022/01/13 01:27:01;;;;;;;;;;;;;;;;;;1031796;28;830;-25
2022/01/13 01:27:37;;;;;;;;;;;;;;;;;;1031668;28;879;-25
2022/01/13 01:28:15;;;;;;;;;;;;;;;;;;1031829;28;822;-28
2022/01/13 01:28:50;;;;;;;;;;;;;;;;;;1031892;28;776;-25
2022/01/13 01:29:56;;;;;;;;;;;;;;;;;;1031877;28;850;-29
2022/01/13 01:30:35;;;;;;;;;;;;;;;;;;1031466;28;1903;-26
2022/01/13 01:31:06;;;;;;;;;;;;;;;;;;1031941;28;978;-25
2022/01/13 01:31:38;;;;;;;;;;;;;;;;;;1031581;28;942;-27
2022/01/13 01:32:11;;;;;;;;;;;;;;;;;;1031838;28;906;-28
2022/01/13 01:32:43;;;;;;;;;;;;;;;;;;1031754;28;894;-26
2022/01/13 01:33:17;;;;;;;;;;;;;;;;;;1031614;28;937;-30
2022/01/13 01:33:59;;;;;;;;;;;;;;;;;;1031779;28;993;-29
2022/01/13 01:34:55;;;;;;;;;;;;;;;;;;1031740;28;985;-27
2022/01/13 01:35:27;;;;;;;;;;;;;;;;;;1031777;28;771;-29
2022/01/13 01:35:57;;;;;;;;;;;;;;;;;;1031712;28;929;-27
2022/01/13 01:36:28;;;;;;;;;;;;;;;;;;1031679;28;1524;-32
2022/01/13 01:36:58;;;;;;;;;;;;;;;;;;1031593;28;807;-28
2022/01/13 01:37:30;;;;;;;;;;;;;;;;;;1031834;28;933;-27
2022/01/13 01:38:00;;;;;;;;;;;;;;;;;;1031766;28;890;-27
2022/01/13 01:38:32;;;;;;;;;;;;;;;;;;1031586;28;1326;-26
2022/01/13 01:39:05;;;;;;;;;;;;;;;;;;1031957;28;827;-25
2022/01/13 01:39:35;;;;;;;;;;;;;;;;;;1031580;28;858;-28
2022/01/13 01:40:07;;;;;;;;;;;;;;;;;;1031872;28;867;-25
2022/01/13 01:40:37;;;;;;;;;;;;;;;;;;1031521;28;929;-29
2022/01/13 01:41:10;;;;;;;;;;;;;;;;;;1031878;28;883;-27
2022/01/13 01:41:42;;;;;;;;;;;;;;;;;;1031673;28;882;-25
2022/01/13 01:42:13;;;;;;;;;;;;;;;;;;1031711;28;780;-27
2022/01/13 01:42:46;;;;;;;;;;;;;;;;;;1031791;28;863;-25
2022/01/13 01:43:16;;;;;;;;;;;;;;;;;;1031664;28;891;-27
2022/01/13 01:43:48;;;;;;;;;;;;;;;;;;1031665;28;1199;-25
2022/01/13 01:44:23;;;;;;;;;;;;;;;;;;1031779;28;886;-25
2022/01/13 01:44:55;;;;;;;;;;;;;;;;;;1031553;28;992;-25
2022/01/13 01:45:32;;;;;;;;;;;;;;;;;;1031816;28;843;-26
2022/01/13 01:46:02;;;;;;;;;;;;;;;;;;1031846;28;1005;-24
2022/01/13 01:46:38;;;;;;;;;;;;;;;;;;1031634;28;902;-25
2022/01/13 01:47:10;;;;;;;;;;;;;;;;;;1031413;28;752;-27
2022/01/13 01:47:43;;;;;;;;;;;;;;;;;;1031089;28;1001;-27
2022/01/13 01:48:19;;;;;;;;;;;;;;;;;;1031405;28;934;-29
2022/01/13 01:48:50;;;;;;;;;;;;;;;;;;1031435;28;1193;-27
2022/01/13 01:49:24;;;;;;;;;;;;;;;;;;1031562;28;1174;-29
2022/01/13 01:49:57;;;;;;;;;;;;;;;;;;1031690;28;796;-24
2022/01/13 01:50:32;;;;;;;;;;;;;;;;;;1031474;28;1963;-27
2022/01/13 01:51:04;;;;;;;;;;;;;;;;;;1031699;28;926;-26
2022/01/13 01:51:34;;;;;;;;;;;;;;;;;;1031450;28;950;-28
2022/01/13 01:52:05;;;;;;;;;;;;;;;;;;1031894;28;910;-27
2022/01/13 01:52:36;;;;;;;;;;;;;;;;;;1031652;28;768;-24
2022/01/13 01:53:06;;;;;;;;;;;;;;;;;;1031631;28;934;-25
2022/01/13 01:53:36;;;;;;;;;;;;;;;;;;1031619;28;849;-29
2022/01/13 01:54:07;;;;;;;;;;;;;;;;;;1031792;28;1036;-26
2022/01/13 01:54:37;;;;;;;;;;;;;;;;;;1031559;28;1301;-27
2022/01/13 01:55:08;;;;;;;;;;;;;;;;;;1031731;28;839;-24
2022/01/13 01:55:38;;;;;;;;;;;;;;;;;;1030892;28;859;-26
2022/01/13 01:56:09;;;;;;;;;;;;;;;;;;1031298;28;755;-29
2022/01/13 01:56:40;;;;;;;;;;;;;;;;;;1031601;28;798;-25
2022/01/13 01:57:10;;;;;;;;;;;;;;;;;;1031806;28;918;-27
2022/01/13 01:57:42;;;;;;;;;;;;;;;;;;1031425;28;978;-27
2022/01/13 01:58:12;;;;;;;;;;;;;;;;;;1027243;28;1663;-26
2022/01/13 01:58:43;;;;;;;;;;;;;;;;;;1023326;29;1162;-25
2022/01/13 01:59:16;;;;;;;;;;;;;;;;;;1023346;29;799;-27
2022/01/13 01:59:47;;;;;;;;;;;;;;;;;;1023600;28;1041;-25
2022/01/13 02:00:19;;;;;;;;;;;;;;;;;;1027859;28;946;-29
2022/01/13 02:00:49;;;;;;;;;;;;;;;;;;1031545;28;780;-27
2022/01/13 02:01:20;;;;;;;;;;;;;;;;;;1031719;28;934;-29
2022/01/13 02:01:51;;;;;;;;;;;;;;;;;;1031562;28;969;-26
2022/01/13 02:02:22;;;;;;;;;;;;;;;;;;1031601;28;1176;-27
2022/01/13 02:02:55;;;;;;;;;;;;;;;;;;1031270;28;803;-31
2022/01/13 02:03:26;;;;;;;;;;;;;;;;;;1031216;28;1024;-24
2022/01/13 02:03:57;;;;;;;;;;;;;;;;;;1031219;28;850;-27
2022/01/13 02:04:27;;;;;;;;;;;;;;;;;;1031361;28;902;-30
2022/01/13 02:04:58;;;;;;;;;;;;;;;;;;1031564;28;906;-27
2022/01/13 02:05:28;;;;;;;;;;;;;;;;;;1031625;28;843;-25
2022/01/13 02:06:00;;;;;;;;;;;;;;;;;;1031609;28;882;-30
2022/01/13 02:06:35;;;;;;;;;;;;;;;;;;1031693;28;859;-33
2022/01/13 02:07:07;;;;;;;;;;;;;;;;;;1031546;28;934;-27
2022/01/13 02:07:38;;;;;;;;;;;;;;;;;;1031591;28;895;-26
2022/01/13 02:08:09;;;;;;;;;;;;;;;;;;1031510;28;870;-28
2022/01/13 02:08:39;;;;;;;;;;;;;;;;;;1031681;28;870;-25
2022/01/13 02:09:10;;;;;;;;;;;;;;;;;;1031493;28;973;-26
2022/01/13 02:09:43;;;;;;;;;;;;;;;;;;1031653;28;958;-27
2022/01/13 02:10:15;;;;;;;;;;;;;;;;;;1031239;28;882;-28
2022/01/13 02:10:45;;;;;;;;;;;;;;;;;;1031593;28;1964;-28
2022/01/13 02:11:16;;;;;;;;;;;;;;;;;;1031476;28;1048;-25
2022/01/13 02:11:48;;;;;;;;;;;;;;;;;;1031600;28;981;-29
2022/01/13 02:12:31;;;;;;;;;;;;;;;;;;1031635;28;843;-28
2022/01/13 02:13:09;;;;;;;;;;;;;;;;;;1030650;28;1278;-29
2022/01/13 02:13:47;;;;;;;;;;;;;;;;;;1030634;28;878;-26
2022/01/13 02:15:05;;;;;;;;;;;;;;;;;;1031571;28;977;-26
2022/01/13 02:15:47;;;;;;;;;;;;;;;;;;1027901;28;975;-26
2022/01/13 02:17:03;;;;;;;;;;;;;;;;;;1027530;28;1194;-28
2022/01/13 02:17:37;;;;;;;;;;;;;;;;;;1027616;28;884;-25
2022/01/13 02:18:07;;;;;;;;;;;;;;;;;;1027463;28;843;-27
2022/01/13 02:18:38;;;;;;;;;;;;;;;;;;1027733;28;654;-25
2022/01/13 02:19:09;;;;;;;;;;;;;;;;;;1027406;28;1607;-25
2022/01/13 02:19:46;;;;;;;;;;;;;;;;;;1027589;28;891;-24
2022/01/13 02:20:18;;;;;;;;;;;;;;;;;;1027430;28;1388;-30
2022/01/13 02:20:52;;;;;;;;;;;;;;;;;;1027458;28;962;-27
2022/01/13 02:21:25;;;;;;;;;;;;;;;;;;1027506;28;934;-30
2022/01/13 02:21:55;;;;;;;;;;;;;;;;;;1027660;28;914;-27
2022/01/13 02:22:26;;;;;;;;;;;;;;;;;;1027462;28;827;-27
2022/01/13 02:22:56;;;;;;;;;;;;;;;;;;1027729;28;788;-27
2022/01/13 02:23:27;;;;;;;;;;;;;;;;;;1027289;28;978;-25
2022/01/13 02:23:58;;;;;;;;;;;;;;;;;;1027641;28;942;-26
2022/01/13 02:24:28;;;;;;;;;;;;;;;;;;1027077;28;878;-25
2022/01/13 02:24:59;;;;;;;;;;;;;;;;;;1027258;28;969;-28
2022/01/13 02:25:29;;;;;;;;;;;;;;;;;;1026909;28;1214;-29
2022/01/13 02:26:00;;;;;;;;;;;;;;;;;;1027226;28;807;-27
2022/01/13 02:26:31;;;;;;;;;;;;;;;;;;1027521;28;867;-27
2022/01/13 02:27:01;;;;;;;;;;;;;;;;;;1027489;28;930;-27
2022/01/13 02:27:32;;;;;;;;;;;;;;;;;;1027424;28;918;-28
2022/01/13 02:28:02;;;;;;;;;;;;;;;;;;1027637;28;918;-31
2022/01/13 02:28:34;;;;;;;;;;;;;;;;;;1027451;28;812;-30
2022/01/13 02:29:04;;;;;;;;;;;;;;;;;;1027502;28;871;-30
2022/01/13 02:29:35;;;;;;;;;;;;;;;;;;1027626;28;1002;-28
2022/01/13 02:30:06;;;;;;;;;;;;;;;;;;1027501;28;913;-31
2022/01/13 02:30:36;;;;;;;;;;;;;;;;;;1027415;28;1910;-31
2022/01/13 02:31:06;;;;;;;;;;;;;;;;;;1027445;28;843;-30
2022/01/13 02:31:37;;;;;;;;;;;;;;;;;;1027502;28;883;-29
2022/01/13 02:32:07;;;;;;;;;;;;;;;;;;1027528;28;946;-27
2022/01/13 02:32:38;;;;;;;;;;;;;;;;;;1027126;28;1280;-24
2022/01/13 02:33:08;;;;;;;;;;;;;;;;;;1027058;28;926;-31
2022/01/13 02:33:39;;;;;;;;;;;;;;;;;;1027253;28;875;-27
2022/01/13 02:34:09;;;;;;;;;;;;;;;;;;1027086;28;1349;-24
2022/01/13 02:34:40;;;;;;;;;;;;;;;;;;1027602;28;950;-26
2022/01/13 02:35:10;;;;;;;;;;;;;;;;;;1027365;28;949;-30
2022/01/13 02:35:40;;;;;;;;;;;;;;;;;;1027623;28;835;-27
2022/01/13 02:36:14;;;;;;;;;;;;;;;;;;1027450;28;792;-24
2022/01/13 02:36:46;;;;;;;;;;;;;;;;;;1027434;28;835;-27
2022/01/13 02:37:16;;;;;;;;;;;;;;;;;;1027452;28;875;-27
2022/01/13 02:37:47;;;;;;;;;;;;;;;;;;1027427;28;827;-27
2022/01/13 02:38:17;;;;;;;;;;;;;;;;;;1027533;28;922;-24
2022/01/13 02:38:48;;;;;;;;;;;;;;;;;;1027564;28;788;-27
2022/01/13 02:39:22;;;;;;;;;;;;;;;;;;1027327;28;788;-25
2022/01/13 02:39:52;;;;;;;;;;;;;;;;;;1027623;28;863;-26
2022/01/13 02:40:23;;;;;;;;;;;;;;;;;;1027229;28;915;-26
2022/01/13 02:40:54;;;;;;;;;;;;;;;;;;1027590;28;915;-25
2022/01/13 02:41:25;;;;;;;;;;;;;;;;;;1027229;28;1056;-24
2022/01/13 02:41:58;;;;;;;;;;;;;;;;;;1027512;28;894;-26
2022/01/13 02:42:29;;;;;;;;;;;;;;;;;;1027483;28;792;-25
2022/01/13 02:42:59;;;;;;;;;;;;;;;;;;1027634;28;958;-27
2022/01/13 02:43:30;;;;;;;;;;;;;;;;;;1027266;28;827;-27
2022/01/13 02:44:00;;;;;;;;;;;;;;;;;;1027686;28;907;-27
2022/01/13 02:44:31;;;;;;;;;;;;;;;;;;1027303;28;982;-29
2022/01/13 02:45:14;;;;;;;;;;;;;;;;;;1027629;28;859;-30
2022/01/13 02:46:02;;;;;;;;;;;;;;;;;;1027389;28;934;-28
2022/01/13 02:47:10;;;;;;;;;;;;;;;;;;1027483;28;945;-32
2022/01/13 02:48:41;;;;;;;;;;;;;;;;;;1028254;28;1209;-28
2022/01/13 02:49:13;;;;;;;;;;;;;;;;;;1027049;28;1732;-27
2022/01/13 02:49:46;;;;;;;;;;;;;;;;;;1026997;28;811;-25
2022/01/13 02:50:16;;;;;;;;;;;;;;;;;;1027085;28;914;-31
2022/01/13 02:50:47;;;;;;;;;;;;;;;;;;1027651;28;1915;-27
2022/01/13 02:51:17;;;;;;;;;;;;;;;;;;1031356;28;807;-28
2022/01/13 02:51:49;;;;;;;;;;;;;;;;;;1031407;28;1030;-30
2022/01/13 02:52:19;;;;;;;;;;;;;;;;;;1031494;28;898;-25
2022/01/13 02:52:50;;;;;;;;;;;;;;;;;;1031409;28;926;-28
2022/01/13 02:53:20;;;;;;;;;;;;;;;;;;1031550;28;879;-27
2022/01/13 02:53:51;;;;;;;;;;;;;;;;;;1031371;28;1008;-26
2022/01/13 02:54:22;;;;;;;;;;;;;;;;;;1031535;28;938;-26
2022/01/13 02:54:52;;;;;;;;;;;;;;;;;;1031414;28;918;-25
2022/01/13 02:55:23;;;;;;;;;;;;;;;;;;1031453;28;982;-28
2022/01/13 02:55:56;;;;;;;;;;;;;;;;;;1031499;28;893;-28
2022/01/13 02:56:27;;;;;;;;;;;;;;;;;;1031289;28;1005;-26
2022/01/13 02:56:57;;;;;;;;;;;;;;;;;;1031621;28;851;-26
2022/01/13 02:57:27;;;;;;;;;;;;;;;;;;1031296;28;910;-25
2022/01/13 02:57:58;;;;;;;;;;;;;;;;;;1031515;28;985;-27
2022/01/13 02:58:28;;;;;;;;;;;;;;;;;;1031382;28;945;-27
2022/01/13 02:58:59;;;;;;;;;;;;;;;;;;1031477;28;883;-30
2022/01/13 02:59:29;;;;;;;;;;;;;;;;;;1031365;28;962;-28
2022/01/13 03:00:00;;;;;;;;;;;;;;;;;;1031505;28;816;-26
2022/01/13 03:00:30;;;;;;;;;;;;;;;;;;1031099;28;863;-29
2022/01/13 03:01:02;;;;;;;;;;;;;;;;;;1031538;28;891;-28
2022/01/13 03:01:33;;;;;;;;;;;;;;;;;;1030312;28;929;-27
2022/01/13 03:02:03;;;;;;;;;;;;;;;;;;1031462;28;1723;-29
2022/01/13 03:02:34;;;;;;;;;;;;;;;;;;1031423;28;990;-29
2022/01/13 03:03:04;;;;;;;;;;;;;;;;;;1031321;28;883;-25
2022/01/13 03:03:36;;;;;;;;;;;;;;;;;;1031433;28;966;-25
2022/01/13 03:04:08;;;;;;;;;;;;;;;;;;1031380;28;875;-25
2022/01/13 03:04:44;;;;;;;;;;;;;;;;;;1031296;28;783;-28
2022/01/13 03:05:15;;;;;;;;;;;;;;;;;;1031369;28;796;-27
2022/01/13 03:05:46;;;;;;;;;;;;;;;;;;1031308;28;1045;-29
2022/01/13 03:06:21;;;;;;;;;;;;;;;;;;1031463;28;887;-27
2022/01/13 03:06:51;;;;;;;;;;;;;;;;;;1031040;28;803;-28
2022/01/13 03:07:22;;;;;;;;;;;;;;;;;;1031130;28;827;-29
2022/01/13 03:07:53;;;;;;;;;;;;;;;;;;1027051;28;1282;-27
2022/01/13 03:08:23;;;;;;;;;;;;;;;;;;1027015;28;939;-29
2022/01/13 03:08:54;;;;;;;;;;;;;;;;;;1027041;28;938;-24
2022/01/13 03:09:24;;;;;;;;;;;;;;;;;;1027052;28;1011;-32
2022/01/13 03:09:54;;;;;;;;;;;;;;;;;;1031453;28;819;-27
2022/01/13 03:10:25;;;;;;;;;;;;;;;;;;1031178;28;1898;-29
2022/01/13 03:10:56;;;;;;;;;;;;;;;;;;1031391;28;875;-30
2022/01/13 03:11:38;;;;;;;;;;;;;;;;;;1031268;28;855;-24
2022/01/13 03:12:09;;;;;;;;;;;;;;;;;;1031360;28;922;-23
2022/01/13 03:12:43;;;;;;;;;;;;;;;;;;1031432;28;1067;-28
2022/01/13 03:13:14;;;;;;;;;;;;;;;;;;1031336;28;946;-26
2022/01/13 03:13:44;;;;;;;;;;;;;;;;;;1031268;28;887;-28
2022/01/13 03:14:17;;;;;;;;;;;;;;;;;;1031368;28;866;-29
2022/01/13 03:14:48;;;;;;;;;;;;;;;;;;1031330;28;939;-29
2022/01/13 03:15:18;;;;;;;;;;;;;;;;;;1031312;28;894;-27
2022/01/13 03:15:48;;;;;;;;;;;;;;;;;;1031396;28;795;-29
2022/01/13 03:16:19;;;;;;;;;;;;;;;;;;1031357;28;800;-27
2022/01/13 03:16:49;;;;;;;;;;;;;;;;;;1031264;28;958;-27
2022/01/13 03:17:19;;;;;;;;;;;;;;;;;;1031323;28;931;-27
2022/01/13 03:17:49;;;;;;;;;;;;;;;;;;1031363;28;832;-22
2022/01/13 03:18:20;;;;;;;;;;;;;;;;;;1031494;28;1179;-27
2022/01/13 03:18:51;;;;;;;;;;;;;;;;;;1031305;28;899;-27
2022/01/13 03:19:22;;;;;;;;;;;;;;;;;;1031282;28;958;-28
2022/01/13 03:19:52;;;;;;;;;;;;;;;;;;1031027;28;1368;-26
2022/01/13 03:20:23;;;;;;;;;;;;;;;;;;1030839;28;937;-30
2022/01/13 03:20:53;;;;;;;;;;;;;;;;;;1031075;28;961;-25
2022/01/13 03:21:23;;;;;;;;;;;;;;;;;;1030829;28;839;-28
2022/01/13 03:21:54;;;;;;;;;;;;;;;;;;1031539;28;851;-25
2022/01/13 03:22:24;;;;;;;;;;;;;;;;;;1031359;28;846;-25
2022/01/13 03:22:54;;;;;;;;;;;;;;;;;;1031324;28;1022;-30
2022/01/13 03:23:25;;;;;;;;;;;;;;;;;;1031207;28;796;-26
2022/01/13 03:23:55;;;;;;;;;;;;;;;;;;1031494;28;828;-30
2022/01/13 03:24:31;;;;;;;;;;;;;;;;;;1031339;28;968;-25
2022/01/13 03:25:03;;;;;;;;;;;;;;;;;;1031453;28;878;-29
2022/01/13 03:25:34;;;;;;;;;;;;;;;;;;1030964;28;1206;-30
2022/01/13 03:26:04;;;;;;;;;;;;;;;;;;1031439;28;969;-30
2022/01/13 03:26:35;;;;;;;;;;;;;;;;;;1031367;28;882;-28
2022/01/13 03:27:07;;;;;;;;;;;;;;;;;;1031408;28;890;-27
2022/01/13 03:27:37;;;;;;;;;;;;;;;;;;1031271;28;846;-28
2022/01/13 03:28:14;;;;;;;;;;;;;;;;;;1031222;28;846;-31
2022/01/13 03:28:51;;;;;;;;;;;;;;;;;;1031395;28;830;-27
2022/01/13 03:29:24;;;;;;;;;;;;;;;;;;1031364;28;855;-27
2022/01/13 03:29:54;;;;;;;;;;;;;;;;;;1031379;28;960;-27
2022/01/13 03:30:24;;;;;;;;;;;;;;;;;;1031233;28;1973;-28
2022/01/13 03:30:56;;;;;;;;;;;;;;;;;;1031276;28;950;-25
2022/01/13 03:31:27;;;;;;;;;;;;;;;;;;1031326;28;945;-29
2022/01/13 03:31:57;;;;;;;;;;;;;;;;;;1031243;28;922;-25
2022/01/13 03:32:27;;;;;;;;;;;;;;;;;;1031316;28;819;-28
2022/01/13 03:32:59;;;;;;;;;;;;;;;;;;1031467;28;846;-27
2022/01/13 03:33:30;;;;;;;;;;;;;;;;;;1031202;28;822;-27
2022/01/13 03:34:00;;;;;;;;;;;;;;;;;;1031406;28;1042;-30
2022/01/13 03:34:30;;;;;;;;;;;;;;;;;;1031206;28;962;-24
2022/01/13 03:35:01;;;;;;;;;;;;;;;;;;1031377;28;867;-25
2022/01/13 03:35:31;;;;;;;;;;;;;;;;;;1031305;28;982;-28
2022/01/13 03:36:02;;;;;;;;;;;;;;;;;;1031330;28;883;-28
2022/01/13 03:36:32;;;;;;;;;;;;;;;;;;1031348;28;846;-26
2022/01/13 03:37:03;;;;;;;;;;;;;;;;;;1031460;28;803;-25
2022/01/13 03:37:33;;;;;;;;;;;;;;;;;;1031089;28;981;-28
2022/01/13 03:38:04;;;;;;;;;;;;;;;;;;1031366;28;898;-33
2022/01/13 03:38:35;;;;;;;;;;;;;;;;;;1031366;28;772;-27
2022/01/13 03:39:06;;;;;;;;;;;;;;;;;;1031362;28;1040;-27
2022/01/13 03:39:36;;;;;;;;;;;;;;;;;;1031429;28;918;-25
2022/01/13 03:40:07;;;;;;;;;;;;;;;;;;1031223;28;930;-26
2022/01/13 03:40:38;;;;;;;;;;;;;;;;;;1031186;28;938;-25
2022/01/13 03:41:08;;;;;;;;;;;;;;;;;;1031347;28;922;-29
2022/01/13 03:41:39;;;;;;;;;;;;;;;;;;1031310;28;835;-24
2022/01/13 03:42:09;;;;;;;;;;;;;;;;;;1031349;28;843;-26
2022/01/13 03:42:40;;;;;;;;;;;;;;;;;;1031220;28;965;-30
2022/01/13 03:43:11;;;;;;;;;;;;;;;;;;1031421;28;831;-27
2022/01/13 03:43:41;;;;;;;;;;;;;;;;;;1031388;28;878;-27
2022/01/13 03:44:17;;;;;;;;;;;;;;;;;;1031251;28;882;-27
2022/01/13 03:44:48;;;;;;;;;;;;;;;;;;1031221;28;938;-28
2022/01/13 03:45:19;;;;;;;;;;;;;;;;;;1031240;28;894;-30
2022/01/13 03:45:50;;;;;;;;;;;;;;;;;;1031413;28;890;-24
2022/01/13 03:46:21;;;;;;;;;;;;;;;;;;1031431;28;961;-26
2022/01/13 03:46:51;;;;;;;;;;;;;;;;;;1031124;28;897;-26
2022/01/13 03:47:22;;;;;;;;;;;;;;;;;;1031467;28;981;-25
2022/01/13 03:47:52;;;;;;;;;;;;;;;;;;1030425;28;1074;-29
2022/01/13 03:48:23;;;;;;;;;;;;;;;;;;1031447;28;808;-26
2022/01/13 03:48:53;;;;;;;;;;;;;;;;;;1028859;28;1228;-29
2022/01/13 03:49:23;;;;;;;;;;;;;;;;;;1027127;28;1020;-26
2022/01/13 03:49:54;;;;;;;;;;;;;;;;;;1027388;28;811;-29
2022/01/13 03:50:28;;;;;;;;;;;;;;;;;;1027112;28;1971;-26
2022/01/13 03:50:59;;;;;;;;;;;;;;;;;;1027249;28;875;-29
2022/01/13 03:51:44;;;;;;;;;;;;;;;;;;1027352;28;902;-28
2022/01/13 03:52:24;;;;;;;;;;;;;;;;;;1027339;28;831;-26
2022/01/13 03:52:57;;;;;;;;;;;;;;;;;;1027232;28;997;-27
2022/01/13 03:53:27;;;;;;;;;;;;;;;;;;1027266;28;788;-28
2022/01/13 03:53:58;;;;;;;;;;;;;;;;;;1027312;28;1387;-27
2022/01/13 03:54:31;;;;;;;;;;;;;;;;;;1027224;28;993;-26
2022/01/13 03:55:20;;;;;;;;;;;;;;;;;;1027384;28;828;-27
2022/01/13 03:56:06;;;;;;;;;;;;;;;;;;1027170;28;919;-28
2022/01/13 03:56:36;;;;;;;;;;;;;;;;;;1027369;28;823;-27
2022/01/13 03:57:06;;;;;;;;;;;;;;;;;;1027188;28;811;-29
2022/01/13 03:58:05;;;;;;;;;;;;;;;;;;1027245;28;907;-28
2022/01/13 03:58:54;;;;;;;;;;;;;;;;;;1027150;28;1662;-28
2022/01/13 03:59:28;;;;;;;;;;;;;;;;;;1027166;28;871;-29
2022/01/13 04:00:17;;;;;;;;;;;;;;;;;;1027450;28;993;-27
2022/01/13 04:01:06;;;;;;;;;;;;;;;;;;1027161;28;926;-30
2022/01/13 04:01:51;;;;;;;;;;;;;;;;;;1027248;28;817;-24
2022/01/13 04:02:21;;;;;;;;;;;;;;;;;;1027358;28;955;-28